sensor_id;sensor_type;location;lat;lon;timestamp;pressure;altitude;pressure_sealevel;temperature;humidity
72428;BME280;60419;48.880;18.036;2023-05-24T00:00:53;98772.88;;;18.49;73.21
72428;BME280;60419;48.880;18.036;2023-05-24T00:03:39;98776.59;;;18.60;72.71
72428;BME280;60419;48.880;18.036;2023-05-24T00:06:25;98768.72;;;18.55;72.71
72428;BME280;60419;48.880;18.036;2023-05-24T00:09:11;98773.78;;;18.34;73.11
72428;BME280;60419;48.880;18.036;2023-05-24T00:11:57;98762.03;;;18.10;74.21
72428;BME280;60419;48.880;18.036;2023-05-24T00:14:42;98769.59;;;18.17;74.62
72428;BME280;60419;48.880;18.036;2023-05-24T00:17:28;98767.28;;;18.19;74.10
72428;BME280;60419;48.880;18.036;2023-05-24T00:20:14;98767.53;;;18.33;73.47
72428;BME280;60419;48.880;18.036;2023-05-24T00:22:59;98769.50;;;18.33;73.60
72428;BME280;60419;48.880;18.036;2023-05-24T00:25:45;98770.28;;;18.33;73.16
72428;BME280;60419;48.880;18.036;2023-05-24T00:28:31;98763.44;;;17.81;74.54
72428;BME280;60419;48.880;18.036;2023-05-24T00:31:16;98772.25;;;17.55;75.90
72428;BME280;60419;48.880;18.036;2023-05-24T00:34:01;98777.78;;;16.88;78.79
72428;BME280;60419;48.880;18.036;2023-05-24T00:36:47;98771.38;;;17.31;77.17
72428;BME280;60419;48.880;18.036;2023-05-24T00:39:32;98782.22;;;17.47;76.42
72428;BME280;60419;48.880;18.036;2023-05-24T00:42:17;98778.31;;;17.29;77.22
72428;BME280;60419;48.880;18.036;2023-05-24T00:45:03;98758.88;;;17.30;77.01
72428;BME280;60419;48.880;18.036;2023-05-24T00:47:49;98783.97;;;17.55;76.69
72428;BME280;60419;48.880;18.036;2023-05-24T00:50:36;98777.22;;;17.49;76.20
72428;BME280;60419;48.880;18.036;2023-05-24T00:53:22;98787.19;;;17.42;77.00
72428;BME280;60419;48.880;18.036;2023-05-24T00:56:07;98789.22;;;17.64;76.01
72428;BME280;60419;48.880;18.036;2023-05-24T00:58:53;98777.16;;;17.85;74.99
72428;BME280;60419;48.880;18.036;2023-05-24T01:01:40;98794.00;;;18.06;74.29
72428;BME280;60419;48.880;18.036;2023-05-24T01:04:26;98797.81;;;18.01;74.13
72428;BME280;60419;48.880;18.036;2023-05-24T01:07:21;98802.28;;;17.90;74.95
72428;BME280;60419;48.880;18.036;2023-05-24T01:13:30;98803.13;;;17.94;74.71
72428;BME280;60419;48.880;18.036;2023-05-24T01:16:23;98807.16;;;17.81;75.20
72428;BME280;60419;48.880;18.036;2023-05-24T01:22:37;98812.41;;;18.09;74.44
72428;BME280;60419;48.880;18.036;2023-05-24T01:28:49;98802.97;;;18.07;74.82
72428;BME280;60419;48.880;18.036;2023-05-24T01:31:35;98815.91;;;18.10;74.57
72428;BME280;60419;48.880;18.036;2023-05-24T01:34:21;98806.25;;;18.16;74.27
72428;BME280;60419;48.880;18.036;2023-05-24T01:37:06;98809.38;;;18.14;74.18
72428;BME280;60419;48.880;18.036;2023-05-24T01:39:52;98811.56;;;18.28;73.32
72428;BME280;60419;48.880;18.036;2023-05-24T01:42:47;98800.13;;;17.80;75.28
72428;BME280;60419;48.880;18.036;2023-05-24T01:45:42;98801.47;;;17.90;75.53
72428;BME280;60419;48.880;18.036;2023-05-24T01:51:36;98803.81;;;17.17;77.72
72428;BME280;60419;48.880;18.036;2023-05-24T01:54:25;98800.44;;;17.59;77.04
72428;BME280;60419;48.880;18.036;2023-05-24T01:57:11;98803.16;;;17.59;76.23
72428;BME280;60419;48.880;18.036;2023-05-24T01:59:58;98803.41;;;17.34;77.30
72428;BME280;60419;48.880;18.036;2023-05-24T02:02:44;98783.41;;;17.46;76.89
72428;BME280;60419;48.880;18.036;2023-05-24T02:05:33;98802.22;;;17.51;75.95
72428;BME280;60419;48.880;18.036;2023-05-24T02:08:19;98812.34;;;17.86;75.11
72428;BME280;60419;48.880;18.036;2023-05-24T02:11:05;98803.34;;;17.86;74.68
72428;BME280;60419;48.880;18.036;2023-05-24T02:13:50;98812.38;;;17.35;76.28
72428;BME280;60419;48.880;18.036;2023-05-24T02:16:36;98817.16;;;17.57;75.59
72428;BME280;60419;48.880;18.036;2023-05-24T02:19:26;98810.19;;;17.25;77.03
72428;BME280;60419;48.880;18.036;2023-05-24T02:22:12;98816.06;;;17.07;77.25
72428;BME280;60419;48.880;18.036;2023-05-24T02:24:57;98815.34;;;17.10;75.97
72428;BME280;60419;48.880;18.036;2023-05-24T02:27:42;98819.03;;;16.70;76.92
72428;BME280;60419;48.880;18.036;2023-05-24T02:30:31;98742.13;;;15.33;78.90
72428;BME280;60419;48.880;18.036;2023-05-24T02:33:16;98819.25;;;15.77;79.51
72428;BME280;60419;48.880;18.036;2023-05-24T02:36:02;98832.22;;;15.56;79.83
72428;BME280;60419;48.880;18.036;2023-05-24T02:38:51;98828.91;;;15.62;79.49
72428;BME280;60419;48.880;18.036;2023-05-24T02:41:36;98827.16;;;15.17;80.53
72428;BME280;60419;48.880;18.036;2023-05-24T02:44:22;98824.47;;;14.93;81.89
72428;BME280;60419;48.880;18.036;2023-05-24T02:47:07;98834.53;;;14.92;81.46
72428;BME280;60419;48.880;18.036;2023-05-24T02:49:53;98843.50;;;14.93;81.02
72428;BME280;60419;48.880;18.036;2023-05-24T02:52:39;98841.44;;;14.90;80.64
72428;BME280;60419;48.880;18.036;2023-05-24T02:55:24;98840.41;;;14.82;80.64
72428;BME280;60419;48.880;18.036;2023-05-24T02:58:11;98834.88;;;14.91;80.50
72428;BME280;60419;48.880;18.036;2023-05-24T03:00:56;98838.94;;;14.72;80.91
72428;BME280;60419;48.880;18.036;2023-05-24T03:03:41;98834.97;;;14.82;80.62
72428;BME280;60419;48.880;18.036;2023-05-24T03:06:27;98839.75;;;15.10;79.97
72428;BME280;60419;48.880;18.036;2023-05-24T03:09:12;98836.47;;;14.92;80.32
72428;BME280;60419;48.880;18.036;2023-05-24T03:11:58;98853.22;;;15.43;78.87
72428;BME280;60419;48.880;18.036;2023-05-24T03:14:43;98849.94;;;15.25;79.12
72428;BME280;60419;48.880;18.036;2023-05-24T03:17:28;98844.28;;;15.43;78.33
72428;BME280;60419;48.880;18.036;2023-05-24T03:20:14;98856.19;;;14.89;80.34
72428;BME280;60419;48.880;18.036;2023-05-24T03:23:00;98857.78;;;15.02;80.96
72428;BME280;60419;48.880;18.036;2023-05-24T03:25:45;98842.47;;;14.97;80.11
72428;BME280;60419;48.880;18.036;2023-05-24T03:28:30;98863.75;;;15.57;78.67
72428;BME280;60419;48.880;18.036;2023-05-24T03:31:17;98855.25;;;15.58;77.60
72428;BME280;60419;48.880;18.036;2023-05-24T03:34:04;98860.72;;;15.34;78.53
72428;BME280;60419;48.880;18.036;2023-05-24T03:36:50;98861.97;;;15.36;77.99
72428;BME280;60419;48.880;18.036;2023-05-24T03:39:35;98851.75;;;15.33;78.15
72428;BME280;60419;48.880;18.036;2023-05-24T03:42:21;98863.00;;;15.19;78.66
72428;BME280;60419;48.880;18.036;2023-05-24T03:45:07;98854.34;;;15.42;78.03
72428;BME280;60419;48.880;18.036;2023-05-24T03:47:52;98861.34;;;15.68;76.92
72428;BME280;60419;48.880;18.036;2023-05-24T03:50:38;98847.66;;;16.04;75.39
72428;BME280;60419;48.880;18.036;2023-05-24T03:53:24;98865.00;;;16.40;73.84
72428;BME280;60419;48.880;18.036;2023-05-24T03:56:09;98862.25;;;16.84;72.50
72428;BME280;60419;48.880;18.036;2023-05-24T03:58:55;98862.75;;;16.58;72.34
72428;BME280;60419;48.880;18.036;2023-05-24T04:01:44;98866.44;;;16.66;72.79
72428;BME280;60419;48.880;18.036;2023-05-24T04:04:30;98866.88;;;15.96;73.74
72428;BME280;60419;48.880;18.036;2023-05-24T04:07:15;98876.97;;;16.52;82.94
72428;BME280;60419;48.880;18.036;2023-05-24T04:10:02;98876.06;;;16.32;73.72
72428;BME280;60419;48.880;18.036;2023-05-24T04:12:49;98880.00;;;16.34;73.01
72428;BME280;60419;48.880;18.036;2023-05-24T04:15:34;98880.59;;;15.99;74.30
72428;BME280;60419;48.880;18.036;2023-05-24T04:18:20;98886.97;;;15.91;74.23
72428;BME280;60419;48.880;18.036;2023-05-24T04:21:05;98888.00;;;15.74;74.87
72428;BME280;60419;48.880;18.036;2023-05-24T04:23:51;98899.59;;;15.47;76.10
72428;BME280;60419;48.880;18.036;2023-05-24T04:26:36;98900.97;;;15.40;76.52
72428;BME280;60419;48.880;18.036;2023-05-24T04:29:21;98908.78;;;15.17;76.71
72428;BME280;60419;48.880;18.036;2023-05-24T04:32:10;98905.16;;;15.87;75.35
72428;BME280;60419;48.880;18.036;2023-05-24T04:34:59;98907.53;;;15.15;76.85
72428;BME280;60419;48.880;18.036;2023-05-24T04:37:46;98907.09;;;15.37;76.65
72428;BME280;60419;48.880;18.036;2023-05-24T04:40:33;98918.78;;;15.50;76.04
72428;BME280;60419;48.880;18.036;2023-05-24T04:43:19;98911.25;;;14.86;77.66
72428;BME280;60419;48.880;18.036;2023-05-24T04:46:04;98912.06;;;14.99;77.86
72428;BME280;60419;48.880;18.036;2023-05-24T04:48:49;98910.94;;;15.49;75.84
72428;BME280;60419;48.880;18.036;2023-05-24T04:51:35;98913.75;;;15.89;74.37
72428;BME280;60419;48.880;18.036;2023-05-24T04:54:22;98914.31;;;15.95;73.61
72428;BME280;60419;48.880;18.036;2023-05-24T04:57:08;98906.75;;;15.51;74.78
72428;BME280;60419;48.880;18.036;2023-05-24T04:59:53;98914.66;;;15.32;75.90
72428;BME280;60419;48.880;18.036;2023-05-24T05:02:39;98927.47;;;15.07;75.86
72428;BME280;60419;48.880;18.036;2023-05-24T05:05:24;98923.41;;;14.67;77.79
72428;BME280;60419;48.880;18.036;2023-05-24T05:08:10;98937.34;;;15.24;76.35
72428;BME280;60419;48.880;18.036;2023-05-24T05:10:56;98925.97;;;14.97;76.40
72428;BME280;60419;48.880;18.036;2023-05-24T05:13:41;98934.59;;;14.99;77.07
72428;BME280;60419;48.880;18.036;2023-05-24T05:16:27;98952.00;;;14.52;78.24
72428;BME280;60419;48.880;18.036;2023-05-24T05:19:12;98952.34;;;14.84;77.25
72428;BME280;60419;48.880;18.036;2023-05-24T05:21:58;98945.59;;;15.03;77.07
72428;BME280;60419;48.880;18.036;2023-05-24T05:24:43;98938.47;;;14.98;76.37
72428;BME280;60419;48.880;18.036;2023-05-24T05:27:28;98947.22;;;15.28;76.19
72428;BME280;60419;48.880;18.036;2023-05-24T05:30:14;98952.56;;;15.49;74.90
72428;BME280;60419;48.880;18.036;2023-05-24T05:33:00;98956.78;;;15.83;73.67
72428;BME280;60419;48.880;18.036;2023-05-24T05:35:45;98960.09;;;16.30;72.55
72428;BME280;60419;48.880;18.036;2023-05-24T05:38:30;98958.81;;;15.87;72.88
72428;BME280;60419;48.880;18.036;2023-05-24T05:41:16;98967.84;;;15.17;74.60
72428;BME280;60419;48.880;18.036;2023-05-24T05:44:01;98969.91;;;15.45;74.14
72428;BME280;60419;48.880;18.036;2023-05-24T05:46:47;98959.16;;;15.48;73.63
72428;BME280;60419;48.880;18.036;2023-05-24T05:49:33;98962.78;;;15.40;74.02
72428;BME280;60419;48.880;18.036;2023-05-24T05:52:20;98964.59;;;15.48;74.31
72428;BME280;60419;48.880;18.036;2023-05-24T05:55:06;98959.50;;;15.83;73.14
72428;BME280;60419;48.880;18.036;2023-05-24T05:57:52;98952.66;;;15.65;73.63
72428;BME280;60419;48.880;18.036;2023-05-24T06:00:39;98961.63;;;15.41;74.26
72428;BME280;60419;48.880;18.036;2023-05-24T06:03:24;98966.84;;;15.34;74.33
72428;BME280;60419;48.880;18.036;2023-05-24T06:06:10;98961.28;;;15.30;75.07
72428;BME280;60419;48.880;18.036;2023-05-24T06:08:55;98956.47;;;15.03;74.98
72428;BME280;60419;48.880;18.036;2023-05-24T06:11:41;98966.75;;;15.43;74.03
72428;BME280;60419;48.880;18.036;2023-05-24T06:14:28;98975.94;;;15.62;73.42
72428;BME280;60419;48.880;18.036;2023-05-24T06:17:15;98952.72;;;14.83;75.48
72428;BME280;60419;48.880;18.036;2023-05-24T06:20:00;98976.38;;;15.28;74.35
72428;BME280;60419;48.880;18.036;2023-05-24T06:22:50;98978.16;;;15.11;74.89
72428;BME280;60419;48.880;18.036;2023-05-24T06:25:36;98975.72;;;15.43;73.96
72428;BME280;60419;48.880;18.036;2023-05-24T06:28:22;98985.13;;;15.70;73.59
72428;BME280;60419;48.880;18.036;2023-05-24T06:31:08;98991.38;;;15.83;73.50
72428;BME280;60419;48.880;18.036;2023-05-24T06:33:53;98988.41;;;15.76;72.12
72428;BME280;60419;48.880;18.036;2023-05-24T06:36:39;99006.91;;;15.70;73.01
72428;BME280;60419;48.880;18.036;2023-05-24T06:39:27;99003.34;;;15.33;73.13
72428;BME280;60419;48.880;18.036;2023-05-24T06:42:12;99010.84;;;15.36;73.63
72428;BME280;60419;48.880;18.036;2023-05-24T06:44:58;99006.78;;;15.54;73.37
72428;BME280;60419;48.880;18.036;2023-05-24T06:47:43;99005.47;;;15.85;71.90
72428;BME280;60419;48.880;18.036;2023-05-24T06:50:29;99016.00;;;15.99;71.90
72428;BME280;60419;48.880;18.036;2023-05-24T06:53:14;99019.63;;;15.91;71.17
72428;BME280;60419;48.880;18.036;2023-05-24T06:55:59;99020.78;;;15.90;71.98
72428;BME280;60419;48.880;18.036;2023-05-24T06:58:45;99019.88;;;15.86;71.44
72428;BME280;60419;48.880;18.036;2023-05-24T07:01:30;99017.75;;;15.33;73.35
72428;BME280;60419;48.880;18.036;2023-05-24T07:04:17;99029.22;;;15.39;74.37
72428;BME280;60419;48.880;18.036;2023-05-24T07:07:02;99033.34;;;15.70;72.76
72428;BME280;60419;48.880;18.036;2023-05-24T07:09:48;99033.94;;;15.17;73.90
72428;BME280;60419;48.880;18.036;2023-05-24T07:12:33;99038.63;;;14.96;74.45
72428;BME280;60419;48.880;18.036;2023-05-24T07:15:19;99040.88;;;15.39;73.69
72428;BME280;60419;48.880;18.036;2023-05-24T07:18:04;99037.53;;;15.67;72.66
72428;BME280;60419;48.880;18.036;2023-05-24T07:20:50;99042.66;;;15.69;72.01
72428;BME280;60419;48.880;18.036;2023-05-24T07:23:36;99049.88;;;15.40;72.04
72428;BME280;60419;48.880;18.036;2023-05-24T07:26:21;99052.66;;;15.31;73.03
72428;BME280;60419;48.880;18.036;2023-05-24T07:29:07;99061.50;;;15.28;72.70
72428;BME280;60419;48.880;18.036;2023-05-24T07:31:54;99057.44;;;15.34;72.82
72428;BME280;60419;48.880;18.036;2023-05-24T07:34:40;99045.38;;;15.69;71.76
72428;BME280;60419;48.880;18.036;2023-05-24T07:37:25;99060.75;;;15.40;72.32
72428;BME280;60419;48.880;18.036;2023-05-24T07:40:11;99068.34;;;15.47;72.07
72428;BME280;60419;48.880;18.036;2023-05-24T07:42:56;99075.06;;;15.16;72.80
72428;BME280;60419;48.880;18.036;2023-05-24T07:45:42;99061.97;;;15.30;72.05
72428;BME280;60419;48.880;18.036;2023-05-24T07:48:27;99059.28;;;15.43;71.50
72428;BME280;60419;48.880;18.036;2023-05-24T07:51:12;99067.69;;;15.50;71.87
72428;BME280;60419;48.880;18.036;2023-05-24T07:53:58;99062.50;;;15.69;71.36
72428;BME280;60419;48.880;18.036;2023-05-24T07:56:43;99079.88;;;15.31;71.24
72428;BME280;60419;48.880;18.036;2023-05-24T07:59:29;99066.34;;;15.56;71.36
72428;BME280;60419;48.880;18.036;2023-05-24T08:02:14;99060.50;;;15.91;70.12
72428;BME280;60419;48.880;18.036;2023-05-24T08:05:00;99063.41;;;16.35;68.73
72428;BME280;60419;48.880;18.036;2023-05-24T08:07:46;99047.53;;;15.75;69.49
72428;BME280;60419;48.880;18.036;2023-05-24T08:10:32;99063.47;;;15.98;69.96
72428;BME280;60419;48.880;18.036;2023-05-24T08:13:17;99070.44;;;15.74;70.25
72428;BME280;60419;48.880;18.036;2023-05-24T08:16:03;99065.50;;;16.66;68.44
72428;BME280;60419;48.880;18.036;2023-05-24T08:18:48;99079.19;;;16.41;67.87
72428;BME280;60419;48.880;18.036;2023-05-24T08:21:33;99070.25;;;16.28;67.99
72428;BME280;60419;48.880;18.036;2023-05-24T08:24:19;99058.31;;;17.30;70.95
72428;BME280;60419;48.880;18.036;2023-05-24T08:27:04;99067.69;;;17.01;64.73
72428;BME280;60419;48.880;18.036;2023-05-24T08:29:51;99060.94;;;16.70;66.30
72428;BME280;60419;48.880;18.036;2023-05-24T08:32:37;99058.56;;;16.81;65.65
72428;BME280;60419;48.880;18.036;2023-05-24T08:35:23;99055.38;;;16.79;66.05
72428;BME280;60419;48.880;18.036;2023-05-24T08:38:09;99060.28;;;16.08;68.28
72428;BME280;60419;48.880;18.036;2023-05-24T08:40:54;99058.44;;;16.24;68.85
72428;BME280;60419;48.880;18.036;2023-05-24T08:43:45;99029.38;;;16.04;68.66
72428;BME280;60419;48.880;18.036;2023-05-24T08:46:34;99038.44;;;16.33;67.56
72428;BME280;60419;48.880;18.036;2023-05-24T08:49:19;99049.03;;;16.10;68.83
72428;BME280;60419;48.880;18.036;2023-05-24T08:52:05;99058.72;;;16.60;67.43
72428;BME280;60419;48.880;18.036;2023-05-24T08:54:56;99069.47;;;17.09;66.55
72428;BME280;60419;48.880;18.036;2023-05-24T08:57:43;99067.41;;;17.34;65.14
72428;BME280;60419;48.880;18.036;2023-05-24T09:00:29;99081.09;;;17.06;65.39
72428;BME280;60419;48.880;18.036;2023-05-24T09:03:15;99077.84;;;17.16;64.67
72428;BME280;60419;48.880;18.036;2023-05-24T09:06:02;99071.06;;;17.38;64.01
72428;BME280;60419;48.880;18.036;2023-05-24T09:08:48;99072.94;;;17.82;63.29
72428;BME280;60419;48.880;18.036;2023-05-24T09:11:38;99077.97;;;17.95;62.99
72428;BME280;60419;48.880;18.036;2023-05-24T09:14:25;99090.13;;;17.82;62.71
72428;BME280;60419;48.880;18.036;2023-05-24T09:17:12;99080.13;;;17.58;62.40
72428;BME280;60419;48.880;18.036;2023-05-24T09:20:01;99081.91;;;17.82;61.85
72428;BME280;60419;48.880;18.036;2023-05-24T09:22:51;99085.28;;;18.07;61.95
72428;BME280;60419;48.880;18.036;2023-05-24T09:25:46;99084.38;;;18.19;60.48
72428;BME280;60419;48.880;18.036;2023-05-24T09:28:32;99091.44;;;18.04;60.27
72428;BME280;60419;48.880;18.036;2023-05-24T09:31:17;99077.09;;;17.91;61.28
72428;BME280;60419;48.880;18.036;2023-05-24T09:34:02;99067.97;;;18.03;60.35
72428;BME280;60419;48.880;18.036;2023-05-24T09:36:51;99082.19;;;18.09;60.26
72428;BME280;60419;48.880;18.036;2023-05-24T09:39:36;99076.91;;;17.84;60.87
72428;BME280;60419;48.880;18.036;2023-05-24T09:42:24;99083.22;;;17.56;61.28
72428;BME280;60419;48.880;18.036;2023-05-24T09:45:14;99077.31;;;17.54;61.76
72428;BME280;60419;48.880;18.036;2023-05-24T09:48:02;99076.84;;;17.36;60.66
72428;BME280;60419;48.880;18.036;2023-05-24T09:53:50;99070.06;;;17.90;61.56
72428;BME280;60419;48.880;18.036;2023-05-24T09:56:38;99089.16;;;17.74;61.41
72428;BME280;60419;48.880;18.036;2023-05-24T09:59:24;99083.16;;;18.16;60.94
72428;BME280;60419;48.880;18.036;2023-05-24T10:02:10;99093.63;;;17.67;60.59
72428;BME280;60419;48.880;18.036;2023-05-24T10:04:58;99081.56;;;17.68;61.14
72428;BME280;60419;48.880;18.036;2023-05-24T10:07:45;99075.53;;;18.26;60.50
72428;BME280;60419;48.880;18.036;2023-05-24T10:10:32;99079.25;;;18.17;60.69
72428;BME280;60419;48.880;18.036;2023-05-24T10:13:19;99085.72;;;18.09;60.75
72428;BME280;60419;48.880;18.036;2023-05-24T10:16:06;99075.66;;;18.49;60.71
72428;BME280;60419;48.880;18.036;2023-05-24T10:18:52;99079.91;;;18.65;60.14
72428;BME280;60419;48.880;18.036;2023-05-24T10:21:39;99076.53;;;18.88;59.36
72428;BME280;60419;48.880;18.036;2023-05-24T10:24:32;99084.66;;;18.84;59.46
72428;BME280;60419;48.880;18.036;2023-05-24T10:27:22;99064.31;;;19.24;57.83
72428;BME280;60419;48.880;18.036;2023-05-24T10:33:01;99079.34;;;18.56;60.43
72428;BME280;60419;48.880;18.036;2023-05-24T10:35:47;99088.13;;;18.46;60.85
72428;BME280;60419;48.880;18.036;2023-05-24T10:38:33;99091.50;;;18.23;61.45
72428;BME280;60419;48.880;18.036;2023-05-24T10:41:18;99078.66;;;18.24;61.50
72428;BME280;60419;48.880;18.036;2023-05-24T10:44:09;99090.34;;;18.40;61.60
72428;BME280;60419;48.880;18.036;2023-05-24T10:47:01;99083.94;;;18.52;62.06
72428;BME280;60419;48.880;18.036;2023-05-24T10:49:52;99091.03;;;17.42;64.60
72428;BME280;60419;48.880;18.036;2023-05-24T10:52:38;99083.88;;;17.82;64.18
72428;BME280;60419;48.880;18.036;2023-05-24T10:55:24;99091.69;;;16.95;66.80
72428;BME280;60419;48.880;18.036;2023-05-24T10:58:11;99091.31;;;17.69;64.46
72428;BME280;60419;48.880;18.036;2023-05-24T11:00:56;99098.16;;;18.07;63.74
72428;BME280;60419;48.880;18.036;2023-05-24T11:03:42;99092.31;;;17.76;65.15
72428;BME280;60419;48.880;18.036;2023-05-24T11:06:53;99086.69;;;18.01;63.75
72428;BME280;60419;48.880;18.036;2023-05-24T11:09:40;99081.22;;;17.69;65.22
72428;BME280;60419;48.880;18.036;2023-05-24T11:12:31;99086.69;;;17.69;64.86
72428;BME280;60419;48.880;18.036;2023-05-24T11:15:23;99086.44;;;18.06;63.79
72428;BME280;60419;48.880;18.036;2023-05-24T11:21:00;99077.13;;;18.62;62.78
72428;BME280;60419;48.880;18.036;2023-05-24T11:23:48;99078.69;;;18.63;62.95
72428;BME280;60419;48.880;18.036;2023-05-24T11:26:34;99082.94;;;18.76;61.98
72428;BME280;60419;48.880;18.036;2023-05-24T11:29:20;99064.06;;;18.71;60.53
72428;BME280;60419;48.880;18.036;2023-05-24T11:32:06;99067.03;;;18.82;61.12
72428;BME280;60419;48.880;18.036;2023-05-24T11:34:51;99064.09;;;18.20;63.77
72428;BME280;60419;48.880;18.036;2023-05-24T11:37:37;99063.41;;;17.59;65.14
72428;BME280;60419;48.880;18.036;2023-05-24T11:40:22;99058.66;;;18.04;64.30
72428;BME280;60419;48.880;18.036;2023-05-24T11:43:19;99055.13;;;18.04;63.26
72428;BME280;60419;48.880;18.036;2023-05-24T11:46:05;99061.78;;;17.58;64.64
72428;BME280;60419;48.880;18.036;2023-05-24T11:48:57;99052.13;;;17.77;64.01
72428;BME280;60419;48.880;18.036;2023-05-24T11:51:43;99065.75;;;18.24;63.87
72428;BME280;60419;48.880;18.036;2023-05-24T11:54:29;99056.59;;;17.53;64.54
72428;BME280;60419;48.880;18.036;2023-05-24T11:57:29;99071.06;;;17.38;65.61
72428;BME280;60419;48.880;18.036;2023-05-24T12:00:26;99058.84;;;17.79;64.21
72428;BME280;60419;48.880;18.036;2023-05-24T12:03:12;99050.72;;;17.51;64.89
72428;BME280;60419;48.880;18.036;2023-05-24T12:05:57;99053.97;;;18.05;62.99
72428;BME280;60419;48.880;18.036;2023-05-24T12:08:44;99054.03;;;18.08;62.38
72428;BME280;60419;48.880;18.036;2023-05-24T12:11:30;99063.63;;;17.83;62.93
72428;BME280;60419;48.880;18.036;2023-05-24T12:14:27;99069.00;;;17.51;64.24
72428;BME280;60419;48.880;18.036;2023-05-24T12:17:13;99057.50;;;18.05;62.75
72428;BME280;60419;48.880;18.036;2023-05-24T12:20:02;99059.81;;;17.87;64.21
72428;BME280;60419;48.880;18.036;2023-05-24T12:22:51;99042.31;;;18.08;62.99
72428;BME280;60419;48.880;18.036;2023-05-24T12:25:37;99058.28;;;18.21;61.56
72428;BME280;60419;48.880;18.036;2023-05-24T12:28:22;99048.44;;;18.36;62.32
72428;BME280;60419;48.880;18.036;2023-05-24T12:31:08;99067.28;;;18.06;62.51
72428;BME280;60419;48.880;18.036;2023-05-24T12:33:54;99061.66;;;17.67;63.45
72428;BME280;60419;48.880;18.036;2023-05-24T12:36:39;99061.66;;;17.99;62.50
72428;BME280;60419;48.880;18.036;2023-05-24T12:39:28;99051.22;;;17.41;63.82
72428;BME280;60419;48.880;18.036;2023-05-24T12:42:19;99060.34;;;17.93;62.78
72428;BME280;60419;48.880;18.036;2023-05-24T12:45:08;99060.53;;;17.24;65.12
72428;BME280;60419;48.880;18.036;2023-05-24T12:47:55;99063.06;;;18.09;63.06
72428;BME280;60419;48.880;18.036;2023-05-24T12:50:41;99043.66;;;18.14;61.62
72428;BME280;60419;48.880;18.036;2023-05-24T12:53:27;99070.13;;;17.78;63.14
72428;BME280;60419;48.880;18.036;2023-05-24T12:56:12;99075.78;;;17.85;62.87
72428;BME280;60419;48.880;18.036;2023-05-24T12:58:57;99069.34;;;18.64;61.09
72428;BME280;60419;48.880;18.036;2023-05-24T13:01:43;99064.97;;;18.08;62.71
72428;BME280;60419;48.880;18.036;2023-05-24T13:04:31;99072.28;;;18.20;61.88
72428;BME280;60419;48.880;18.036;2023-05-24T13:07:17;99054.84;;;18.24;61.81
72428;BME280;60419;48.880;18.036;2023-05-24T13:10:03;99049.75;;;18.42;61.58
72428;BME280;60419;48.880;18.036;2023-05-24T13:12:48;99060.94;;;18.53;61.25
72428;BME280;60419;48.880;18.036;2023-05-24T13:15:34;99055.13;;;18.04;62.02
72428;BME280;60419;48.880;18.036;2023-05-24T13:18:20;99056.13;;;18.31;62.42
72428;BME280;60419;48.880;18.036;2023-05-24T13:21:05;99036.81;;;18.23;61.36
72428;BME280;60419;48.880;18.036;2023-05-24T13:23:51;99059.41;;;18.56;60.79
72428;BME280;60419;48.880;18.036;2023-05-24T13:26:36;99053.75;;;17.78;63.51
72428;BME280;60419;48.880;18.036;2023-05-24T13:29:22;99052.16;;;17.93;63.08
72428;BME280;60419;48.880;18.036;2023-05-24T13:32:08;99062.03;;;18.33;61.87
72428;BME280;60419;48.880;18.036;2023-05-24T13:34:53;99058.00;;;17.47;63.78
72428;BME280;60419;48.880;18.036;2023-05-24T13:37:38;99046.25;;;18.26;62.74
72428;BME280;60419;48.880;18.036;2023-05-24T13:40:25;99054.00;;;18.59;61.35
72428;BME280;60419;48.880;18.036;2023-05-24T13:43:10;99052.28;;;18.16;62.57
72428;BME280;60419;48.880;18.036;2023-05-24T13:45:56;99052.41;;;18.04;62.38
72428;BME280;60419;48.880;18.036;2023-05-24T13:48:42;99031.16;;;17.97;61.60
72428;BME280;60419;48.880;18.036;2023-05-24T13:51:28;99047.84;;;17.76;63.53
72428;BME280;60419;48.880;18.036;2023-05-24T13:54:14;99054.31;;;18.19;62.43
72428;BME280;60419;48.880;18.036;2023-05-24T13:57:00;99047.19;;;18.14;62.12
72428;BME280;60419;48.880;18.036;2023-05-24T13:59:46;99043.91;;;18.24;61.08
72428;BME280;60419;48.880;18.036;2023-05-24T14:02:32;99054.50;;;17.47;63.44
72428;BME280;60419;48.880;18.036;2023-05-24T14:05:17;99046.38;;;17.66;62.93
72428;BME280;60419;48.880;18.036;2023-05-24T14:08:03;99053.00;;;17.65;62.31
72428;BME280;60419;48.880;18.036;2023-05-24T14:10:50;99045.00;;;17.88;62.13
72428;BME280;60419;48.880;18.036;2023-05-24T14:13:36;99044.53;;;17.54;62.90
72428;BME280;60419;48.880;18.036;2023-05-24T14:16:22;99052.94;;;17.77;63.22
72428;BME280;60419;48.880;18.036;2023-05-24T14:19:07;99055.16;;;17.12;64.98
72428;BME280;60419;48.880;18.036;2023-05-24T14:21:52;99038.06;;;17.15;63.60
72428;BME280;60419;48.880;18.036;2023-05-24T14:24:38;99043.84;;;17.57;63.22
72428;BME280;60419;48.880;18.036;2023-05-24T14:27:23;99039.00;;;17.67;62.08
72428;BME280;60419;48.880;18.036;2023-05-24T14:30:10;99052.56;;;17.63;62.21
72428;BME280;60419;48.880;18.036;2023-05-24T14:32:55;99040.88;;;17.78;61.85
72428;BME280;60419;48.880;18.036;2023-05-24T14:35:41;99037.78;;;17.80;61.74
72428;BME280;60419;48.880;18.036;2023-05-24T14:38:26;99045.53;;;17.94;61.35
72428;BME280;60419;48.880;18.036;2023-05-24T14:41:12;99058.41;;;17.93;60.91
72428;BME280;60419;48.880;18.036;2023-05-24T14:43:58;99041.34;;;18.16;60.21
72428;BME280;60419;48.880;18.036;2023-05-24T14:46:45;99056.59;;;18.52;59.12
72428;BME280;60419;48.880;18.036;2023-05-24T14:49:30;99058.28;;;18.21;60.11
72428;BME280;60419;48.880;18.036;2023-05-24T14:52:15;99054.34;;;17.87;61.06